sensor_id;sensor_type;location;lat;lon;timestamp;temperature;humidity
59025;DHT22;44806;48.008;13.666;2023-09-30T00:00:25;19.10;99.90
59025;DHT22;44806;48.008;13.666;2023-09-30T00:02:52;19.20;99.90
59025;DHT22;44806;48.008;13.666;2023-09-30T00:05:21;19.20;99.90
59025;DHT22;44806;48.008;13.666;2023-09-30T00:07:47;19.20;99.90
59025;DHT22;44806;48.008;13.666;2023-09-30T00:10:15;19.30;99.90
59025;DHT22;44806;48.008;13.666;2023-09-30T00:12:42;19.30;99.90
59025;DHT22;44806;48.008;13.666;2023-09-30T00:15:10;19.20;99.90
59025;DHT22;44806;48.008;13.666;2023-09-30T00:17:37;19.20;99.90
59025;DHT22;44806;48.008;13.666;2023-09-30T00:20:05;19.30;99.90
59025;DHT22;44806;48.008;13.666;2023-09-30T00:22:34;19.30;99.90
59025;DHT22;44806;48.008;13.666;2023-09-30T00:25:01;19.30;99.90
59025;DHT22;44806;48.008;13.666;2023-09-30T00:27:27;19.30;99.90
59025;DHT22;44806;48.008;13.666;2023-09-30T00:29:54;19.40;99.90
59025;DHT22;44806;48.008;13.666;2023-09-30T00:32:21;19.40;99.90
59025;DHT22;44806;48.008;13.666;2023-09-30T00:34:48;19.40;99.90
59025;DHT22;44806;48.008;13.666;2023-09-30T00:37:17;19.40;99.90
59025;DHT22;44806;48.008;13.666;2023-09-30T00:39:45;19.40;99.90
59025;DHT22;44806;48.008;13.666;2023-09-30T00:42:12;19.30;99.90
59025;DHT22;44806;48.008;13.666;2023-09-30T00:44:39;19.30;99.90
59025;DHT22;44806;48.008;13.666;2023-09-30T00:47:06;19.30;99.90
59025;DHT22;44806;48.008;13.666;2023-09-30T00:49:34;19.30;99.90
59025;DHT22;44806;48.008;13.666;2023-09-30T00:52:01;19.40;99.90
59025;DHT22;44806;48.008;13.666;2023-09-30T00:54:29;19.30;99.90
59025;DHT22;44806;48.008;13.666;2023-09-30T00:56:58;19.40;99.90
59025;DHT22;44806;48.008;13.666;2023-09-30T00:59:29;19.40;99.90
59025;DHT22;44806;48.008;13.666;2023-09-30T01:01:59;19.40;99.90
59025;DHT22;44806;48.008;13.666;2023-09-30T01:04:27;19.30;99.90
59025;DHT22;44806;48.008;13.666;2023-09-30T01:06:54;19.30;99.90
59025;DHT22;44806;48.008;13.666;2023-09-30T01:09:23;19.30;99.90
59025;DHT22;44806;48.008;13.666;2023-09-30T01:11:50;19.20;99.90
59025;DHT22;44806;48.008;13.666;2023-09-30T01:14:29;19.30;99.90
59025;DHT22;44806;48.008;13.666;2023-09-30T01:16:57;19.20;99.90
59025;DHT22;44806;48.008;13.666;2023-09-30T01:19:24;19.20;99.90
59025;DHT22;44806;48.008;13.666;2023-09-30T01:21:53;19.20;99.90
59025;DHT22;44806;48.008;13.666;2023-09-30T01:24:24;19.10;99.90
59025;DHT22;44806;48.008;13.666;2023-09-30T01:26:51;19.10;99.90
59025;DHT22;44806;48.008;13.666;2023-09-30T01:29:18;19.10;99.90
59025;DHT22;44806;48.008;13.666;2023-09-30T01:31:45;19.10;99.90
59025;DHT22;44806;48.008;13.666;2023-09-30T01:34:13;19.20;99.90
59025;DHT22;44806;48.008;13.666;2023-09-30T01:36:40;19.10;99.90
59025;DHT22;44806;48.008;13.666;2023-09-30T01:39:09;19.10;99.90
59025;DHT22;44806;48.008;13.666;2023-09-30T01:41:36;19.00;99.90
59025;DHT22;44806;48.008;13.666;2023-09-30T01:44:03;19.00;99.90
59025;DHT22;44806;48.008;13.666;2023-09-30T01:46:30;19.10;99.90
59025;DHT22;44806;48.008;13.666;2023-09-30T01:48:57;19.00;99.90
59025;DHT22;44806;48.008;13.666;2023-09-30T01:51:24;19.00;99.90
59025;DHT22;44806;48.008;13.666;2023-09-30T01:53:51;19.00;99.90
59025;DHT22;44806;48.008;13.666;2023-09-30T01:56:19;19.00;99.90
59025;DHT22;44806;48.008;13.666;2023-09-30T01:58:46;19.00;99.90
59025;DHT22;44806;48.008;13.666;2023-09-30T02:01:13;19.00;99.90
59025;DHT22;44806;48.008;13.666;2023-09-30T02:03:41;19.00;99.90
59025;DHT22;44806;48.008;13.666;2023-09-30T02:06:08;19.00;99.90
59025;DHT22;44806;48.008;13.666;2023-09-30T02:08:35;19.00;99.90
59025;DHT22;44806;48.008;13.666;2023-09-30T02:11:03;18.90;99.90
59025;DHT22;44806;48.008;13.666;2023-09-30T02:13:33;18.80;99.90
59025;DHT22;44806;48.008;13.666;2023-09-30T02:16:00;18.90;99.90
59025;DHT22;44806;48.008;13.666;2023-09-30T02:18:27;18.90;99.90
59025;DHT22;44806;48.008;13.666;2023-09-30T02:20:58;18.90;99.90
59025;DHT22;44806;48.008;13.666;2023-09-30T02:23:26;18.80;99.90
59025;DHT22;44806;48.008;13.666;2023-09-30T02:25:52;18.80;99.90
59025;DHT22;44806;48.008;13.666;2023-09-30T02:28:19;18.70;99.90
59025;DHT22;44806;48.008;13.666;2023-09-30T02:30:47;18.80;99.90
59025;DHT22;44806;48.008;13.666;2023-09-30T02:33:15;18.70;99.90
59025;DHT22;44806;48.008;13.666;2023-09-30T02:35:44;18.70;99.90
59025;DHT22;44806;48.008;13.666;2023-09-30T02:38:11;18.70;99.90
59025;DHT22;44806;48.008;13.666;2023-09-30T02:40:37;18.70;99.90
59025;DHT22;44806;48.008;13.666;2023-09-30T02:43:05;18.70;99.90
59025;DHT22;44806;48.008;13.666;2023-09-30T02:45:32;18.60;99.90
59025;DHT22;44806;48.008;13.666;2023-09-30T02:48:01;18.60;99.90
59025;DHT22;44806;48.008;13.666;2023-09-30T02:50:27;18.60;99.90
59025;DHT22;44806;48.008;13.666;2023-09-30T02:52:54;18.40;99.90
59025;DHT22;44806;48.008;13.666;2023-09-30T02:55:21;18.40;99.90
59025;DHT22;44806;48.008;13.666;2023-09-30T02:57:48;18.30;99.90
59025;DHT22;44806;48.008;13.666;2023-09-30T03:00:16;18.30;99.90
59025;DHT22;44806;48.008;13.666;2023-09-30T03:02:49;18.30;99.90
59025;DHT22;44806;48.008;13.666;2023-09-30T03:05:18;18.40;99.90
59025;DHT22;44806;48.008;13.666;2023-09-30T03:07:45;18.40;99.90
59025;DHT22;44806;48.008;13.666;2023-09-30T03:10:12;18.40;99.90
59025;DHT22;44806;48.008;13.666;2023-09-30T03:12:46;18.40;99.90
59025;DHT22;44806;48.008;13.666;2023-09-30T03:15:13;18.50;99.90
59025;DHT22;44806;48.008;13.666;2023-09-30T03:17:40;18.50;99.90
59025;DHT22;44806;48.008;13.666;2023-09-30T03:20:08;18.40;99.90
59025;DHT22;44806;48.008;13.666;2023-09-30T03:22:40;18.40;99.90
59025;DHT22;44806;48.008;13.666;2023-09-30T03:25:09;18.40;99.90
59025;DHT22;44806;48.008;13.666;2023-09-30T03:27:37;18.40;99.90
59025;DHT22;44806;48.008;13.666;2023-09-30T03:30:05;18.40;99.90
59025;DHT22;44806;48.008;13.666;2023-09-30T03:32:32;18.40;99.90
59025;DHT22;44806;48.008;13.666;2023-09-30T03:34:59;18.30;99.90
59025;DHT22;44806;48.008;13.666;2023-09-30T03:37:27;18.30;99.90
59025;DHT22;44806;48.008;13.666;2023-09-30T03:39:56;18.20;99.90
59025;DHT22;44806;48.008;13.666;2023-09-30T03:42:23;18.20;99.90
59025;DHT22;44806;48.008;13.666;2023-09-30T03:44:50;18.20;99.90
59025;DHT22;44806;48.008;13.666;2023-09-30T03:47:18;18.20;99.90
59025;DHT22;44806;48.008;13.666;2023-09-30T03:49:45;18.10;99.90
59025;DHT22;44806;48.008;13.666;2023-09-30T03:52:13;18.10;99.90
59025;DHT22;44806;48.008;13.666;2023-09-30T03:54:40;18.10;99.90
59025;DHT22;44806;48.008;13.666;2023-09-30T03:57:09;18.20;99.90
59025;DHT22;44806;48.008;13.666;2023-09-30T03:59:38;18.10;99.90
59025;DHT22;44806;48.008;13.666;2023-09-30T04:02:05;18.00;99.90
59025;DHT22;44806;48.008;13.666;2023-09-30T04:04:33;18.10;99.90
59025;DHT22;44806;48.008;13.666;2023-09-30T04:07:02;18.20;99.90
59025;DHT22;44806;48.008;13.666;2023-09-30T04:09:35;18.20;99.90
59025;DHT22;44806;48.008;13.666;2023-09-30T04:12:03;18.20;99.90
59025;DHT22;44806;48.008;13.666;2023-09-30T04:14:31;18.30;99.90
59025;DHT22;44806;48.008;13.666;2023-09-30T04:16:58;18.30;99.90
59025;DHT22;44806;48.008;13.666;2023-09-30T04:19:25;18.30;99.90
59025;DHT22;44806;48.008;13.666;2023-09-30T04:21:52;18.30;99.90
59025;DHT22;44806;48.008;13.666;2023-09-30T04:24:19;18.30;99.90
59025;DHT22;44806;48.008;13.666;2023-09-30T04:26:46;18.40;99.90
59025;DHT22;44806;48.008;13.666;2023-09-30T04:29:15;18.40;99.90
59025;DHT22;44806;48.008;13.666;2023-09-30T04:31:44;18.40;99.90
59025;DHT22;44806;48.008;13.666;2023-09-30T04:34:11;18.40;99.90
59025;DHT22;44806;48.008;13.666;2023-09-30T04:36:39;18.40;99.90
59025;DHT22;44806;48.008;13.666;2023-09-30T04:39:06;18.40;99.90
59025;DHT22;44806;48.008;13.666;2023-09-30T04:41:33;18.30;99.90
59025;DHT22;44806;48.008;13.666;2023-09-30T04:44:00;18.30;99.90
59025;DHT22;44806;48.008;13.666;2023-09-30T04:46:27;18.30;99.90
59025;DHT22;44806;48.008;13.666;2023-09-30T04:48:55;18.40;99.90
59025;DHT22;44806;48.008;13.666;2023-09-30T04:51:22;18.40;99.90
59025;DHT22;44806;48.008;13.666;2023-09-30T04:53:51;18.40;99.90
59025;DHT22;44806;48.008;13.666;2023-09-30T04:56:20;18.40;99.90
59025;DHT22;44806;48.008;13.666;2023-09-30T04:58:47;18.40;99.90
59025;DHT22;44806;48.008;13.666;2023-09-30T05:01:14;18.40;99.90
59025;DHT22;44806;48.008;13.666;2023-09-30T05:03:41;18.40;99.90
59025;DHT22;44806;48.008;13.666;2023-09-30T05:06:10;18.20;99.90
59025;DHT22;44806;48.008;13.666;2023-09-30T05:08:37;18.20;99.90
59025;DHT22;44806;48.008;13.666;2023-09-30T05:11:04;18.10;99.90
59025;DHT22;44806;48.008;13.666;2023-09-30T05:13:31;18.10;99.90
59025;DHT22;44806;48.008;13.666;2023-09-30T05:15:59;18.00;99.90
59025;DHT22;44806;48.008;13.666;2023-09-30T05:18:26;18.00;99.90
59025;DHT22;44806;48.008;13.666;2023-09-30T05:20:53;17.90;99.90
59025;DHT22;44806;48.008;13.666;2023-09-30T05:23:22;17.90;99.90
59025;DHT22;44806;48.008;13.666;2023-09-30T05:25:49;17.70;99.90
59025;DHT22;44806;48.008;13.666;2023-09-30T05:28:16;17.80;99.90
59025;DHT22;44806;48.008;13.666;2023-09-30T05:30:44;17.80;99.90
59025;DHT22;44806;48.008;13.666;2023-09-30T05:33:11;17.80;99.90
59025;DHT22;44806;48.008;13.666;2023-09-30T05:35:40;17.80;99.90
59025;DHT22;44806;48.008;13.666;2023-09-30T05:38:07;17.80;99.90
59025;DHT22;44806;48.008;13.666;2023-09-30T05:40:35;17.80;99.90
59025;DHT22;44806;48.008;13.666;2023-09-30T05:43:03;17.80;99.90
59025;DHT22;44806;48.008;13.666;2023-09-30T05:45:32;17.80;99.90
59025;DHT22;44806;48.008;13.666;2023-09-30T05:48:02;17.90;99.90
59025;DHT22;44806;48.008;13.666;2023-09-30T05:50:33;17.90;99.90
59025;DHT22;44806;48.008;13.666;2023-09-30T05:53:00;17.90;99.90
59025;DHT22;44806;48.008;13.666;2023-09-30T05:55:27;18.00;99.90
59025;DHT22;44806;48.008;13.666;2023-09-30T05:57:56;18.00;99.90
59025;DHT22;44806;48.008;13.666;2023-09-30T06:00:23;18.10;99.90
59025;DHT22;44806;48.008;13.666;2023-09-30T06:02:54;18.00;99.90
59025;DHT22;44806;48.008;13.666;2023-09-30T06:05:21;18.10;99.90
59025;DHT22;44806;48.008;13.666;2023-09-30T06:07:49;18.00;99.90
59025;DHT22;44806;48.008;13.666;2023-09-30T06:10:16;18.10;99.90
59025;DHT22;44806;48.008;13.666;2023-09-30T06:12:45;18.10;99.90
59025;DHT22;44806;48.008;13.666;2023-09-30T06:15:14;18.20;99.90
59025;DHT22;44806;48.008;13.666;2023-09-30T06:17:47;18.20;99.90
59025;DHT22;44806;48.008;13.666;2023-09-30T06:20:14;18.20;99.90
59025;DHT22;44806;48.008;13.666;2023-09-30T06:22:43;18.30;99.90
59025;DHT22;44806;48.008;13.666;2023-09-30T06:25:11;18.30;99.90
59025;DHT22;44806;48.008;13.666;2023-09-30T06:27:38;18.30;99.90
59025;DHT22;44806;48.008;13.666;2023-09-30T06:30:06;18.40;99.90
59025;DHT22;44806;48.008;13.666;2023-09-30T06:32:36;18.40;99.90
59025;DHT22;44806;48.008;13.666;2023-09-30T06:35:03;18.50;99.90
59025;DHT22;44806;48.008;13.666;2023-09-30T06:37:31;18.50;99.90
59025;DHT22;44806;48.008;13.666;2023-09-30T06:39:58;18.60;99.90
59025;DHT22;44806;48.008;13.666;2023-09-30T06:42:29;18.60;99.90
59025;DHT22;44806;48.008;13.666;2023-09-30T06:44:56;18.60;99.90
59025;DHT22;44806;48.008;13.666;2023-09-30T06:47:23;18.60;99.90
59025;DHT22;44806;48.008;13.666;2023-09-30T06:49:52;18.60;99.90
59025;DHT22;44806;48.008;13.666;2023-09-30T06:52:19;18.60;99.90
59025;DHT22;44806;48.008;13.666;2023-09-30T06:54:46;18.70;99.90
59025;DHT22;44806;48.008;13.666;2023-09-30T06:57:13;18.70;99.90
59025;DHT22;44806;48.008;13.666;2023-09-30T06:59:40;18.80;99.90
59025;DHT22;44806;48.008;13.666;2023-09-30T07:02:07;18.70;99.90
59025;DHT22;44806;48.008;13.666;2023-09-30T07:04:34;18.60;99.90
59025;DHT22;44806;48.008;13.666;2023-09-30T07:07:02;18.60;99.90
59025;DHT22;44806;48.008;13.666;2023-09-30T07:09:29;18.60;99.90
59025;DHT22;44806;48.008;13.666;2023-09-30T07:11:56;18.70;99.90
59025;DHT22;44806;48.008;13.666;2023-09-30T07:14:23;18.80;99.90
59025;DHT22;44806;48.008;13.666;2023-09-30T07:16:50;18.70;99.90
59025;DHT22;44806;48.008;13.666;2023-09-30T07:19:17;18.70;99.90
59025;DHT22;44806;48.008;13.666;2023-09-30T07:21:44;18.60;99.90
59025;DHT22;44806;48.008;13.666;2023-09-30T07:24:13;18.70;99.90
59025;DHT22;44806;48.008;13.666;2023-09-30T07:26:40;18.80;99.90
59025;DHT22;44806;48.008;13.666;2023-09-30T07:29:08;18.70;99.90
59025;DHT22;44806;48.008;13.666;2023-09-30T07:31:35;18.50;99.90
59025;DHT22;44806;48.008;13.666;2023-09-30T07:34:02;18.60;99.90
59025;DHT22;44806;48.008;13.666;2023-09-30T07:36:29;18.70;99.90
59025;DHT22;44806;48.008;13.666;2023-09-30T07:38:57;18.80;99.90
59025;DHT22;44806;48.008;13.666;2023-09-30T07:41:27;18.80;99.90
59025;DHT22;44806;48.008;13.666;2023-09-30T07:43:54;18.90;99.90
59025;DHT22;44806;48.008;13.666;2023-09-30T07:46:21;18.90;99.90
59025;DHT22;44806;48.008;13.666;2023-09-30T07:48:48;18.90;99.90
59025;DHT22;44806;48.008;13.666;2023-09-30T07:51:15;18.90;99.90
59025;DHT22;44806;48.008;13.666;2023-09-30T07:53:42;19.10;99.90
59025;DHT22;44806;48.008;13.666;2023-09-30T07:56:08;19.10;99.90
59025;DHT22;44806;48.008;13.666;2023-09-30T07:58:37;19.10;99.90
59025;DHT22;44806;48.008;13.666;2023-09-30T08:01:04;19.00;99.90
59025;DHT22;44806;48.008;13.666;2023-09-30T08:03:30;19.00;99.90
59025;DHT22;44806;48.008;13.666;2023-09-30T08:05:57;19.00;99.90
59025;DHT22;44806;48.008;13.666;2023-09-30T08:08:24;19.10;99.90
59025;DHT22;44806;48.008;13.666;2023-09-30T08:10:51;19.10;99.90
59025;DHT22;44806;48.008;13.666;2023-09-30T08:13:21;19.20;99.90
59025;DHT22;44806;48.008;13.666;2023-09-30T08:15:50;19.20;99.90
59025;DHT22;44806;48.008;13.666;2023-09-30T08:18:18;19.30;99.90
59025;DHT22;44806;48.008;13.666;2023-09-30T08:20:45;19.40;99.90
59025;DHT22;44806;48.008;13.666;2023-09-30T08:23:12;19.30;99.90
59025;DHT22;44806;48.008;13.666;2023-09-30T08:25:39;19.40;99.90
59025;DHT22;44806;48.008;13.666;2023-09-30T08:28:06;19.50;99.90
59025;DHT22;44806;48.008;13.666;2023-09-30T08:30:35;19.50;99.90
59025;DHT22;44806;48.008;13.666;2023-09-30T08:33:03;19.50;99.90
59025;DHT22;44806;48.008;13.666;2023-09-30T08:35:35;19.50;99.90
59025;DHT22;44806;48.008;13.666;2023-09-30T08:38:02;19.30;99.90
59025;DHT22;44806;48.008;13.666;2023-09-30T08:40:29;19.40;99.90
59025;DHT22;44806;48.008;13.666;2023-09-30T08:42:57;19.60;99.90
59025;DHT22;44806;48.008;13.666;2023-09-30T08:45:28;19.80;99.90
59025;DHT22;44806;48.008;13.666;2023-09-30T08:47:55;20.00;99.90
59025;DHT22;44806;48.008;13.666;2023-09-30T08:50:24;19.90;99.90
59025;DHT22;44806;48.008;13.666;2023-09-30T08:52:52;20.00;99.30
59025;DHT22;44806;48.008;13.666;2023-09-30T08:55:19;20.00;99.90
59025;DHT22;44806;48.008;13.666;2023-09-30T08:57:46;20.20;98.30
59025;DHT22;44806;48.008;13.666;2023-09-30T09:00:15;20.40;98.40
59025;DHT22;44806;48.008;13.666;2023-09-30T09:02:42;20.60;98.10
59025;DHT22;44806;48.008;13.666;2023-09-30T09:05:09;20.40;96.90
59025;DHT22;44806;48.008;13.666;2023-09-30T09:07:38;20.40;97.50
59025;DHT22;44806;48.008;13.666;2023-09-30T09:10:06;20.30;95.60
59025;DHT22;44806;48.008;13.666;2023-09-30T09:12:34;20.20;96.00
59025;DHT22;44806;48.008;13.666;2023-09-30T09:15:01;19.90;95.40
59025;DHT22;44806;48.008;13.666;2023-09-30T09:17:40;19.80;97.30
59025;DHT22;44806;48.008;13.666;2023-09-30T09:20:09;19.80;96.60
59025;DHT22;44806;48.008;13.666;2023-09-30T09:22:42;19.80;96.40
59025;DHT22;44806;48.008;13.666;2023-09-30T09:25:10;19.80;96.60
59025;DHT22;44806;48.008;13.666;2023-09-30T09:27:37;19.90;96.50
59025;DHT22;44806;48.008;13.666;2023-09-30T09:30:18;20.00;96.30
59025;DHT22;44806;48.008;13.666;2023-09-30T09:32:58;20.00;96.30
59025;DHT22;44806;48.008;13.666;2023-09-30T09:35:26;20.00;96.70
59025;DHT22;44806;48.008;13.666;2023-09-30T09:37:57;20.10;97.10
59025;DHT22;44806;48.008;13.666;2023-09-30T09:40:26;20.00;96.30
59025;DHT22;44806;48.008;13.666;2023-09-30T09:42:54;20.10;96.50
59025;DHT22;44806;48.008;13.666;2023-09-30T09:45:22;20.20;97.00
59025;DHT22;44806;48.008;13.666;2023-09-30T09:47:50;20.30;96.90
59025;DHT22;44806;48.008;13.666;2023-09-30T09:50:19;20.10;96.70
59025;DHT22;44806;48.008;13.666;2023-09-30T09:52:48;20.00;96.30
59025;DHT22;44806;48.008;13.666;2023-09-30T09:55:18;20.10;96.70
59025;DHT22;44806;48.008;13.666;2023-09-30T09:57:45;20.20;96.70
59025;DHT22;44806;48.008;13.666;2023-09-30T10:00:15;20.40;97.60
59025;DHT22;44806;48.008;13.666;2023-09-30T10:02:44;20.30;95.50
59025;DHT22;44806;48.008;13.666;2023-09-30T10:05:12;20.30;95.90
59025;DHT22;44806;48.008;13.666;2023-09-30T10:07:46;20.30;95.90
59025;DHT22;44806;48.008;13.666;2023-09-30T10:10:18;20.40;96.40
59025;DHT22;44806;48.008;13.666;2023-09-30T10:12:45;20.50;95.60
59025;DHT22;44806;48.008;13.666;2023-09-30T10:15:42;20.50;94.20
59025;DHT22;44806;48.008;13.666;2023-09-30T10:18:10;20.50;93.90
59025;DHT22;44806;48.008;13.666;2023-09-30T10:20:38;20.50;96.20
59025;DHT22;44806;48.008;13.666;2023-09-30T10:23:22;20.60;95.20
59025;DHT22;44806;48.008;13.666;2023-09-30T10:25:53;20.70;95.60
59025;DHT22;44806;48.008;13.666;2023-09-30T10:28:33;20.80;95.40
59025;DHT22;44806;48.008;13.666;2023-09-30T10:31:14;20.90;94.80
59025;DHT22;44806;48.008;13.666;2023-09-30T10:34:18;20.90;94.30
59025;DHT22;44806;48.008;13.666;2023-09-30T10:36:46;21.00;94.20
59025;DHT22;44806;48.008;13.666;2023-09-30T10:39:54;21.10;94.10
59025;DHT22;44806;48.008;13.666;2023-09-30T10:42:48;21.10;92.30
59025;DHT22;44806;48.008;13.666;2023-09-30T10:45:44;21.20;91.80
59025;DHT22;44806;48.008;13.666;2023-09-30T10:48:37;21.20;92.20
59025;DHT22;44806;48.008;13.666;2023-09-30T10:51:16;21.30;92.80
59025;DHT22;44806;48.008;13.666;2023-09-30T10:53:48;21.20;91.60
59025;DHT22;44806;48.008;13.666;2023-09-30T10:56:17;21.10;92.00
59025;DHT22;44806;48.008;13.666;2023-09-30T10:58:46;20.90;92.90
59025;DHT22;44806;48.008;13.666;2023-09-30T11:01:15;20.90;92.70
59025;DHT22;44806;48.008;13.666;2023-09-30T11:03:43;21.00;93.90
59025;DHT22;44806;48.008;13.666;2023-09-30T11:06:11;21.00;93.80
59025;DHT22;44806;48.008;13.666;2023-09-30T11:08:46;21.10;93.30
59025;DHT22;44806;48.008;13.666;2023-09-30T11:11:13;21.10;93.60
59025;DHT22;44806;48.008;13.666;2023-09-30T11:13:41;21.20;92.20
59025;DHT22;44806;48.008;13.666;2023-09-30T11:16:09;21.30;94.40
59025;DHT22;44806;48.008;13.666;2023-09-30T11:18:36;21.30;93.40
59025;DHT22;44806;48.008;13.666;2023-09-30T11:21:06;21.40;92.90
59025;DHT22;44806;48.008;13.666;2023-09-30T11:23:35;21.40;93.60
59025;DHT22;44806;48.008;13.666;2023-09-30T11:26:02;21.40;93.10
59025;DHT22;44806;48.008;13.666;2023-09-30T11:28:36;21.40;92.60
59025;DHT22;44806;48.008;13.666;2023-09-30T11:31:09;21.30;92.20
59025;DHT22;44806;48.008;13.666;2023-09-30T11:33:53;21.40;90.80
59025;DHT22;44806;48.008;13.666;2023-09-30T11:36:23;21.60;91.60
59025;DHT22;44806;48.008;13.666;2023-09-30T11:38:51;21.50;91.10
59025;DHT22;44806;48.008;13.666;2023-09-30T11:41:18;21.60;91.20
59025;DHT22;44806;48.008;13.666;2023-09-30T11:44:03;21.60;90.90
59025;DHT22;44806;48.008;13.666;2023-09-30T11:46:47;21.60;91.40
59025;DHT22;44806;48.008;13.666;2023-09-30T11:49:25;21.40;90.00
59025;DHT22;44806;48.008;13.666;2023-09-30T11:51:53;21.40;90.60
59025;DHT22;44806;48.008;13.666;2023-09-30T11:54:20;21.40;90.90
59025;DHT22;44806;48.008;13.666;2023-09-30T11:56:48;21.50;90.20
59025;DHT22;44806;48.008;13.666;2023-09-30T11:59:16;21.40;89.50
59025;DHT22;44806;48.008;13.666;2023-09-30T12:01:46;21.40;90.30
59025;DHT22;44806;48.008;13.666;2023-09-30T12:04:14;21.40;90.90
59025;DHT22;44806;48.008;13.666;2023-09-30T12:06:43;21.40;90.20
59025;DHT22;44806;48.008;13.666;2023-09-30T12:09:09;21.40;91.20
59025;DHT22;44806;48.008;13.666;2023-09-30T12:11:39;21.40;90.50
59025;DHT22;44806;48.008;13.666;2023-09-30T12:14:09;21.40;91.30
59025;DHT22;44806;48.008;13.666;2023-09-30T12:16:36;21.40;91.50
59025;DHT22;44806;48.008;13.666;2023-09-30T12:19:04;21.50;90.20
59025;DHT22;44806;48.008;13.666;2023-09-30T12:21:32;21.50;90.90
59025;DHT22;44806;48.008;13.666;2023-09-30T12:24:00;21.60;90.10
59025;DHT22;44806;48.008;13.666;2023-09-30T12:26:27;21.60;90.20
59025;DHT22;44806;48.008;13.666;2023-09-30T12:28:55;21.70;90.50
59025;DHT22;44806;48.008;13.666;2023-09-30T12:31:22;21.60;88.30
59025;DHT22;44806;48.008;13.666;2023-09-30T12:33:49;21.50;88.40
59025;DHT22;44806;48.008;13.666;2023-09-30T12:36:18;21.50;90.30
59025;DHT22;44806;48.008;13.666;2023-09-30T12:38:45;21.50;87.90
59025;DHT22;44806;48.008;13.666;2023-09-30T12:41:13;21.50;88.40
59025;DHT22;44806;48.008;13.666;2023-09-30T12:43:40;21.60;90.50
59025;DHT22;44806;48.008;13.666;2023-09-30T12:46:07;21.50;90.00
59025;DHT22;44806;48.008;13.666;2023-09-30T12:48:34;21.40;89.20
59025;DHT22;44806;48.008;13.666;2023-09-30T12:51:04;21.30;89.50
59025;DHT22;44806;48.008;13.666;2023-09-30T12:53:33;21.30;90.40
59025;DHT22;44806;48.008;13.666;2023-09-30T12:56:00;21.20;88.20
59025;DHT22;44806;48.008;13.666;2023-09-30T12:58:27;21.10;87.80
59025;DHT22;44806;48.008;13.666;2023-09-30T13:00:54;21.10;85.90
59025;DHT22;44806;48.008;13.666;2023-09-30T13:03:21;21.10;87.30
59025;DHT22;44806;48.008;13.666;2023-09-30T13:05:49;21.10;86.10
59025;DHT22;44806;48.008;13.666;2023-09-30T13:08:16;21.00;86.60
59025;DHT22;44806;48.008;13.666;2023-09-30T13:10:44;20.90;86.40
59025;DHT22;44806;48.008;13.666;2023-09-30T13:13:11;21.00;89.10
59025;DHT22;44806;48.008;13.666;2023-09-30T13:15:38;21.10;90.00
59025;DHT22;44806;48.008;13.666;2023-09-30T13:18:07;21.00;87.30
59025;DHT22;44806;48.008;13.666;2023-09-30T13:20:33;21.00;88.10
59025;DHT22;44806;48.008;13.666;2023-09-30T13:23:00;21.10;88.40
59025;DHT22;44806;48.008;13.666;2023-09-30T13:25:29;21.20;90.30
59025;DHT22;44806;48.008;13.666;2023-09-30T13:27:57;21.30;89.90
59025;DHT22;44806;48.008;13.666;2023-09-30T13:30:24;21.30;86.50
59025;DHT22;44806;48.008;13.666;2023-09-30T13:32:51;21.20;86.50
59025;DHT22;44806;48.008;13.666;2023-09-30T13:35:18;21.00;83.70
59025;DHT22;44806;48.008;13.666;2023-09-30T13:37:45;21.00;82.90
59025;DHT22;44806;48.008;13.666;2023-09-30T13:40:12;21.00;82.00
59025;DHT22;44806;48.008;13.666;2023-09-30T13:42:39;21.00;84.70
59025;DHT22;44806;48.008;13.666;2023-09-30T13:45:10;20.80;82.60
59025;DHT22;44806;48.008;13.666;2023-09-30T13:47:37;20.90;85.30
59025;DHT22;44806;48.008;13.666;2023-09-30T13:50:05;21.00;84.60
59025;DHT22;44806;48.008;13.666;2023-09-30T13:52:33;20.90;85.80
59025;DHT22;44806;48.008;13.666;2023-09-30T13:55:00;21.00;89.30
59025;DHT22;44806;48.008;13.666;2023-09-30T13:57:28;20.90;86.10
59025;DHT22;44806;48.008;13.666;2023-09-30T13:59:55;20.70;85.80
59025;DHT22;44806;48.008;13.666;2023-09-30T14:02:23;20.70;87.90
59025;DHT22;44806;48.008;13.666;2023-09-30T14:04:51;20.80;86.60
59025;DHT22;44806;48.008;13.666;2023-09-30T14:07:19;20.90;87.70
59025;DHT22;44806;48.008;13.666;2023-09-30T14:09:45;20.90;86.00
59025;DHT22;44806;48.008;13.666;2023-09-30T14:12:13;20.90;84.30
59025;DHT22;44806;48.008;13.666;2023-09-30T14:14:40;20.70;83.10
59025;DHT22;44806;48.008;13.666;2023-09-30T14:17:07;20.70;83.50
59025;DHT22;44806;48.008;13.666;2023-09-30T14:19:40;20.90;83.90
59025;DHT22;44806;48.008;13.666;2023-09-30T14:22:07;20.80;82.20
59025;DHT22;44806;48.008;13.666;2023-09-30T14:24:35;20.80;85.90
59025;DHT22;44806;48.008;13.666;2023-09-30T14:27:02;20.90;85.20
59025;DHT22;44806;48.008;13.666;2023-09-30T14:29:30;20.80;84.40
59025;DHT22;44806;48.008;13.666;2023-09-30T14:31:58;20.70;84.30
59025;DHT22;44806;48.008;13.666;2023-09-30T14:34:25;20.60;82.60
59025;DHT22;44806;48.008;13.666;2023-09-30T14:36:53;20.60;82.00
59025;DHT22;44806;48.008;13.666;2023-09-30T14:39:20;20.60;85.30
59025;DHT22;44806;48.008;13.666;2023-09-30T14:41:47;20.60;83.50
59025;DHT22;44806;48.008;13.666;2023-09-30T14:44:14;20.60;82.90
59025;DHT22;44806;48.008;13.666;2023-09-30T14:46:42;20.60;85.00
59025;DHT22;44806;48.008;13.666;2023-09-30T14:49:10;20.70;83.30
59025;DHT22;44806;48.008;13.666;2023-09-30T14:51:37;20.70;81.90
59025;DHT22;44806;48.008;13.666;2023-09-30T14:54:06;20.70;84.20
59025;DHT22;44806;48.008;13.666;2023-09-30T14:56:33;20.80;84.30
59025;DHT22;44806;48.008;13.666;2023-09-30T14:59:00;20.90;85.10
59025;DHT22;44806;48.008;13.666;2023-09-30T15:01:28;20.90;82.70
59025;DHT22;44806;48.008;13.666;2023-09-30T15:03:55;20.80;82.40
59025;DHT22;44806;48.008;13.666;2023-09-30T15:06:22;20.90;82.60
59025;DHT22;44806;48.008;13.666;2023-09-30T15:08:50;21.00;83.40
59025;DHT22;44806;48.008;13.666;2023-09-30T15:11:18;21.00;85.20
59025;DHT22;44806;48.008;13.666;2023-09-30T15:13:45;21.10;83.60
59025;DHT22;44806;48.008;13.666;2023-09-30T15:16:16;21.00;83.30
59025;DHT22;44806;48.008;13.666;2023-09-30T15:18:44;20.80;83.50
59025;DHT22;44806;48.008;13.666;2023-09-30T15:21:12;20.90;85.30
59025;DHT22;44806;48.008;13.666;2023-09-30T15:23:39;20.80;83.60